Hauptseite
METAR-TAF:

METAR-TAF

Flughäfen :

Flugplatz St. Gallen-Altenrhein

St. Gallen, Schweiz

Breite: 47-29-06N, Länge: 009-33-43E, Höhe: 398 m

Beobachtung

Neuester Wetterbericht von vor 49 Minuten, um 04:20 UTC
Wind 1 kt aus unterschiedlichen Richtungen
Temperatur 3°C
Luftfeuchtigkeit 93%
Luftdruck 1026 hPa
Sichtweite 10 km oder mehr
keine Wolken unter 1500 m und keine Kumulonimbus oder Gewitterwolken

METAR: LSZR 210420Z AUTO VRB01KT CAVOK 03/02 Q1026

Zeit: 06:09 (05:09 UTC)

Prognose

Neuester Wetterbericht von vor 2 Stunden und 44 Minuten, um 02:25 UTC
Gültige Prognose vom 21 um 03 UTC bis 21 um 12 UTC
Wind 2 kt aus unterschiedlichen Richtungen
Sichtweite 10 km oder mehr
keine Wolken unter 1500 m und keine Kumulonimbus oder Gewitterwolken

TAF: LSZR 210225Z 2103/2112 VRB02KT CAVOK

Wetterbeobachtungen und Prognosen von mehr als 4000 Flughäfen (METAR und TAF Bericht).

Die verfügbaren Stationen werden durch gelbe und rote Markierungen auf der Karte dargestellt.

Führen Sie die Maus auf sie, um den Namen der Station zu sehen.

Darauf klicken, um die Beobachtung von Wetterbeobachtungen und Prognosen zu sehen.

Um die Karte zu ändern : klicken Sie auf den grünen Tasten mit einem schwarzen Kreuz Zum Vergrößern, auf den grünen Button mit einem Gedankenstrich zu verkleinern, oder auf die grünen Pfeile für benachbarte Karten.


METAR-TAF: